ADDS METAR Data INFO
IDs: Format: Raw Decoded Include TAF

Data at: 1957 UTC 25 Feb 2018

KLBX 251953Z AUTO 19019G24KT 10SM FEW020 BKN028 OVC035 26/21 A2991 RMK AO2 RAB1858E08 SLP127 P0000 T02610206
KLBX 251853Z AUTO 18016G21KT 10SM SCT017 OVC029 24/21 A2994 RMK AO2 RAB22E40 SLP137 P0000 T02440206
KLBX 251753Z AUTO 19014KT 10SM FEW017 OVC026 25/21 A2996 RMK AO2 SLP146 T02500206 10250 20228 50001
KLBX 251653Z AUTO 18012KT 10SM SCT017 OVC025 24/21 A2998 RMK AO2 SLP152 T02440211
KLBX 251553Z AUTO 17014G21KT 10SM BKN016 OVC026 24/21 A2997 RMK AO2 SLP148 T02390206
KLBX 251534Z AUTO 16013KT 9SM FEW012 BKN017 OVC031 24/21 A2996 RMK AO2 T02390206
KLBX 251522Z AUTO 16015G20KT 9SM SCT013 SCT025 OVC031 24/21 A2996 RMK AO2 T02390211
KLBX 251514Z AUTO 17012KT 9SM SCT013 BKN027 OVC031 24/21 A2996 RMK AO2 T02390211
KLBX 251453Z AUTO 16014KT 9SM FEW011 SCT017 OVC031 23/21 A2996 RMK AO2 SLP145 T02330211 53003
KLBX 251449Z AUTO 15011KT 9SM FEW011 SCT017 OVC033 23/21 A2996 RMK AO2
KLBX 251440Z AUTO 16011KT 9SM SCT011 BKN018 OVC033 23/21 A2996 RMK AO2 T02330211
KLBX 251423Z AUTO 14008KT 8SM FEW013 SCT017 OVC036 23/21 A2996 RMK AO2 T02330211
KLBX 251414Z AUTO 14007KT 8SM SCT013 BKN029 OVC036 23/21 A2996 RMK AO2 T02330211
KLBX 251400Z AUTO 15007KT 8SM SCT012 BKN030 OVC035 23/21 A2996 RMK AO2 T02280211
KLBX 251353Z AUTO 14006KT 8SM BKN012 OVC033 23/21 A2995 RMK AO2 SLP141 T02280211
KLBX 251253Z AUTO 00000KT 8SM OVC011 23/21 A2995 RMK AO2 SLP142 T02280211
KLBX 251229Z AUTO 00000KT 9SM BKN011 OVC020 23/21 A2995 RMK AO2 T02280211
KLBX 251207Z AUTO 15010KT 9SM BKN020 23/21 A2992 RMK AO2 T02280206
KLBX 251153Z AUTO 18005KT 8SM FEW020 23/21 A2992 RMK AO2 SLP133 60006 70006 T02280211 10233 20222 55003
KLBX 251103Z AUTO 17009KT 7SM FEW008 SCT017 23/21 A2992 RMK AO2 T02280211
KLBX 251053Z AUTO 16008KT 7SM SCT008 BKN018 23/21 A2991 RMK AO2 RAE31 SLP129 P0000 T02280211
KLBX 250953Z AUTO 19005KT 7SM -RA BKN007 OVC038 23/21 A2993 RMK AO2 RAB11 SLP133 P0006 T02280211
KLBX 250901Z AUTO 19009KT 7SM BKN009 BKN014 OVC045 23/22 A2994 RMK AO2 T02330217
KLBX 250853Z AUTO 19009KT 8SM BKN011 BKN035 OVC041 23/21 A2993 RMK AO2 LTG DSNT NW RAB11E45 SLP136 P0000 60000 T02330211 58007
KLBX 250800Z AUTO 19007KT 7SM BKN009 BKN016 OVC037 23/22 A2996 RMK AO2 LTG DSNT W AND NW CIG 007V012 T02330217
KLBX 250753Z AUTO 20007KT 8SM BKN011 BKN018 OVC035 23/22 A2996 RMK AO2 LTG DSNT W AND NW CIG 007V014 SLP144 T02330217
KLBX 250751Z AUTO 20008KT 7SM BKN011 BKN018 OVC037 23/22 A2996 RMK AO2 LTG DSNT W AND NW CIG 007V014
KLBX 250742Z AUTO 19006KT 7SM SCT010 BKN022 OVC034 23/22 A2996 RMK AO2 T02330217
KLBX 250653Z AUTO 18008KT 6SM BR BKN010 BKN017 OVC070 23/22 A2995 RMK AO2 CIG 007V013 SLP142 T02330217
KLBX 250648Z AUTO 18008KT 7SM BKN010 OVC017 23/22 A2995 RMK AO2 CIG 007V013
KLBX 250553Z AUTO 20007KT 7SM OVC009 23/22 A2995 RMK AO2 CIG 008V011 SLP143 T02330217 10239 20228 402720217 51016
KLBX 250513Z AUTO 19010KT 8SM OVC009 23/22 A2995 RMK AO2 T02330217
KLBX 250453Z AUTO 18011KT 8SM OVC010 23/21 A2994 RMK AO2 SLP139 T02330211
KLBX 250353Z AUTO 17012KT 8SM BKN010 23/22 A2992 RMK AO2 SLP132 T02330217
KLBX 250323Z AUTO 18011KT 8SM BKN010 OVC017 23/21 A2992 RMK AO2 T02330211
KLBX 250253Z AUTO 18014KT 9SM FEW009 OVC017 23/21 A2991 RMK AO2 SLP127 T02330211 55002
KLBX 250248Z AUTO 17015KT 8SM FEW009 BKN017 23/21 A2990 RMK AO2
KLBX 250153Z AUTO 18011KT 8SM SCT010 BKN017 OVC060 23/21 A2992 RMK AO2 SLP130 T02330211
KLBX 250150Z AUTO 18011KT 8SM SCT010 BKN017 OVC060 23/21 A2991 RMK AO2
KLBX 250102Z AUTO 18009KT 9SM BKN011 OVC060 23/21 A2990 RMK AO2 T02330211
KLBX 250053Z AUTO 18011KT 9SM SCT011 BKN024 OVC060 23/21 A2990 RMK AO2 SLP125 T02330211
KLBX 242353Z AUTO 18016KT 9SM SCT015 BKN021 OVC031 24/21 A2990 RMK AO2 SLP124 T02390211 10272 20239 53008
KLBX 242253Z AUTO 19014KT 10SM BKN016 BKN021 OVC028 24/21 A2989 RMK AO2 SLP120 T02440211
KLBX 242153Z AUTO 19017KT 10SM BKN022 BKN027 OVC037 26/21 A2988 RMK AO2 PK WND 17026/2118 SLP116 T02560206
KLBX 242053Z AUTO 19021G27KT 10SM BKN021 OVC028 26/21 A2987 RMK AO2 PK WND 19027/2053 SLP116 T02560206 58018
KLBX 241953Z AUTO 19019G28KT 10SM BKN023 BKN027 OVC033 26/20 A2990 RMK AO2 PK WND 19035/1903 SLP124 T02610200
KLBX 241853Z AUTO 19020G33KT 10SM BKN023 BKN028 OVC034 26/20 A2993 RMK AO2 PK WND 18038/1837 SLP133 T02560200
KLBX 241850Z AUTO 19021G33KT 10SM BKN023 BKN028 OVC034 26/20 A2993 RMK AO2 PK WND 18038/1837
KLBX 241843Z AUTO 18023G38KT 10SM SCT024 BKN030 BKN039 26/20 A2993 RMK AO2 PK WND 18038/1837 T02560200
KLBX 241834Z AUTO 19025G33KT 10SM SCT024 BKN029 BKN034 26/20 A2993 RMK AO2 PK WND 19036/1800 T02610200
KLBX 241809Z AUTO 19025G36KT 10SM FEW023 BKN030 26/19 A2995 RMK AO2 PK WND 19036/1800 T02610194
KLBX 241753Z AUTO 19019G28KT 10SM SCT021 BKN026 BKN032 27/20 A2995 RMK AO2 PK WND 18031/1732 SLP142 T02670200 10267 20217 58008
KLBX 241653Z AUTO 18020G28KT 10SM SCT019 BKN026 BKN032 26/21 A2997 RMK AO2 PK WND 16028/1647 SLP147 T02610206
KLBX 241553Z AUTO 18020G26KT 10SM BKN019 BKN025 OVC031 25/21 A2997 RMK AO2 PK WND 17028/1540 SLP149 T02500206
KLBX 241500Z AUTO 17017KT 10SM SCT015 BKN020 OVC031 24/21 A2998 RMK AO2 T02440206
KLBX 241453Z AUTO 17016KT 10SM SCT014 SCT020 OVC031 24/21 A2998 RMK AO2 SLP150 T02390206 50003
KLBX 241419Z AUTO 18012KT 9SM FEW010 OVC029 23/21 A2998 RMK AO2 T02330206
KLBX 241409Z AUTO 17014KT 9SM BKN030 24/21 A2998 RMK AO2 T02390211
KLBX 241353Z AUTO 17014KT 9SM BKN026 23/21 A2998 RMK AO2 SLP152 T02280206
KLBX 241253Z AUTO 18009KT 8SM FEW010 SCT015 OVC023 22/20 A2998 RMK AO2 SLP151 T02170200
KLBX 241153Z AUTO 17010KT 9SM FEW011 FEW017 OVC027 22/21 A2997 RMK AO2 SLP147 T02220206 10233 20222 55005
KLBX 241053Z AUTO 17012KT 9SM FEW010 FEW021 OVC026 23/21 A2995 RMK AO2 SLP142 T02280206
KLBX 240949Z AUTO 17012KT 9SM SCT009 OVC026 23/21 A2996 RMK AO2 SLP145 T02280211
KLBX 240948Z AUTO 17013KT 9SM SCT009 OVC026 23/21 A2996 RMK AO2
KLBX 240937Z AUTO 17014KT 9SM BKN010 OVC026 23/21 A2996 RMK AO2 CIG 008V012 T02330211
KLBX 240926Z AUTO 17015KT 9SM BKN009 OVC027 23/21 A2996 RMK AO2 CIG 008V015 T02330211
KLBX 240853Z AUTO 17014KT 9SM BKN010 OVC026 23/21 A2998 RMK AO2 CIG 008V013 SLP152 T02330211 56013
KLBX 240802Z AUTO 17017G22KT 10SM BKN010 BKN017 OVC024 23/21 A2999 RMK AO2 T02330211